KRQB

Details ICAO KRQB
Name ROBEN HOOD
Region United States
Timezone America/Detroit (UTC-5.0)
Plans Departing 3
Arriving 4
Stats Elevation 990 ft / 302 m (AMSL)
Location 43.722075° -85.502775°
Runways 2
Magnetic Variation 5.955° W
Sunrise 2017-12-16 13:11:06 UTC / 2017-12-16 08:11:06 Local
Sunset 2017-12-16 22:07:10 UTC / 2017-12-16 17:07:10 Local
Advertisement - Login to hide

Runways

ID Width Length Bearing (true) Bearing (mag) Surface Threshold Offset Overrun Length
09 75 ft / 23 m 4,289 ft / 1,307 m 90.29° 96.24° Asphalt 0 ft / 0 m 0 ft / 0 m
14 75 ft / 23 m 2,699 ft / 823 m 143.06° 149.01° Asphalt 0 ft / 0 m 0 ft / 0 m
27 75 ft / 23 m 4,289 ft / 1,307 m 270.30° 276.25° Asphalt 0 ft / 0 m 0 ft / 0 m
32 75 ft / 23 m 2,699 ft / 823 m 323.06° 329.01° Asphalt 0 ft / 0 m 0 ft / 0 m

Map

Weather


0- 5 10 15 20 25 30 35+ Temperature / ° C

Clouds and Precipitation
Forecast for 2017-12-17 00:00 UTC. Updated an hour ago

Ground ~20,000 ft ~40,000 ft Winds

METAR

KRQB 162235Z AUTO 12006KT 10SM OVC019 M05/M08 A3005 RMK AO2 T10511080

TAF

Not found

Frequencies

Recorded 121.12 MHz AWOS 3
Unicom 122.80 MHz CTAF/UNICOM
Warning: Do not use this data for real-world aviation or navigation. No guarantee of current accuracy is given.